createdAt,value
2023-02-19T00:01:35.737Z,6.70
2023-02-19T00:04:05.456Z,6.73
2023-02-19T00:06:34.518Z,6.74
2023-02-19T00:09:01.527Z,6.74
2023-02-19T00:11:30.386Z,6.74
2023-02-19T00:13:58.583Z,6.74
2023-02-19T00:16:27.321Z,6.74
2023-02-19T00:18:55.142Z,6.77
2023-02-19T00:21:23.777Z,6.76
2023-02-19T00:23:50.973Z,6.78
2023-02-19T00:26:19.019Z,6.79
2023-02-19T00:28:46.353Z,6.82
2023-02-19T00:31:17.056Z,6.84
2023-02-19T00:33:43.908Z,6.85
2023-02-19T00:36:10.963Z,6.79
2023-02-19T00:38:40.544Z,6.79
2023-02-19T00:41:07.930Z,6.84
2023-02-19T00:43:34.576Z,6.83
2023-02-19T00:46:01.157Z,6.81
2023-02-19T00:48:27.756Z,6.78
2023-02-19T00:50:54.338Z,6.76
2023-02-19T00:53:20.897Z,6.78
2023-02-19T00:55:48.853Z,6.78
2023-02-19T00:58:15.557Z,6.77
2023-02-19T01:00:42.133Z,6.75
2023-02-19T01:03:08.653Z,6.84
2023-02-19T01:05:35.192Z,6.81
2023-02-19T01:08:01.832Z,6.81
2023-02-19T01:10:28.424Z,6.75
2023-02-19T01:12:56.332Z,6.76
2023-02-19T01:15:23.062Z,6.77
2023-02-19T01:17:49.591Z,6.73
2023-02-19T01:20:16.513Z,6.73
2023-02-19T01:22:43.230Z,6.73
2023-02-19T01:25:09.899Z,6.74
2023-02-19T01:27:36.400Z,6.72
2023-02-19T01:30:04.959Z,6.69
2023-02-19T01:32:31.591Z,6.70
2023-02-19T01:34:58.150Z,6.70
2023-02-19T01:37:24.915Z,6.70
2023-02-19T01:39:51.481Z,6.73
2023-02-19T01:42:18.438Z,6.75
2023-02-19T01:45:22.697Z,6.75
2023-02-19T01:48:07.226Z,6.75
2023-02-19T01:50:38.891Z,6.76
2023-02-19T01:53:08.531Z,6.79
2023-02-19T01:55:36.028Z,6.76
2023-02-19T01:58:03.606Z,6.68
2023-02-19T02:00:33.171Z,6.65
2023-02-19T02:03:00.734Z,6.66
2023-02-19T02:05:40.090Z,6.69
2023-02-19T02:08:06.878Z,6.68
2023-02-19T02:10:33.977Z,6.72
2023-02-19T02:13:00.463Z,6.70
2023-02-19T02:15:36.567Z,6.70
2023-02-19T02:18:11.378Z,6.69
2023-02-19T02:21:02.896Z,6.69
2023-02-19T02:23:40.294Z,6.67
2023-02-19T02:26:20.438Z,6.66
2023-02-19T02:29:34.759Z,6.73
2023-02-19T02:32:08.636Z,6.76
2023-02-19T02:34:41.785Z,6.75
2023-02-19T02:37:10.203Z,6.76
2023-02-19T02:39:37.852Z,6.73
2023-02-19T02:42:05.032Z,6.72
2023-02-19T02:44:35.032Z,6.70
2023-02-19T02:47:05.176Z,6.72
2023-02-19T02:49:34.454Z,6.75
2023-02-19T02:52:01.920Z,6.77
2023-02-19T02:54:32.454Z,6.75
2023-02-19T02:57:00.121Z,6.76
2023-02-19T02:59:31.360Z,6.73
2023-02-19T03:02:02.323Z,6.76
2023-02-19T03:04:35.076Z,6.72
2023-02-19T03:07:08.406Z,6.74
2023-02-19T03:09:37.766Z,6.76
2023-02-19T03:12:06.772Z,6.73
2023-02-19T03:14:37.917Z,6.75
2023-02-19T03:17:09.451Z,6.78
2023-02-19T03:19:42.344Z,6.76
2023-02-19T03:22:13.901Z,6.76
2023-02-19T03:24:45.913Z,6.80
2023-02-19T03:27:15.594Z,6.78
2023-02-19T03:29:45.870Z,6.76
2023-02-19T03:32:17.126Z,6.75
2023-02-19T03:34:52.585Z,6.70
2023-02-19T03:37:22.157Z,6.70
2023-02-19T03:39:48.756Z,6.68
2023-02-19T03:42:24.327Z,6.72
2023-02-19T03:45:03.396Z,6.75
2023-02-19T03:47:35.870Z,6.76
2023-02-19T03:50:17.850Z,6.76
2023-02-19T03:52:55.417Z,6.74
2023-02-19T03:55:28.396Z,6.74
2023-02-19T03:57:59.338Z,6.76
2023-02-19T04:00:32.420Z,6.76
2023-02-19T04:03:06.084Z,6.78
2023-02-19T04:05:40.240Z,6.78
2023-02-19T04:08:11.733Z,6.78
2023-02-19T04:10:40.447Z,6.79
2023-02-19T04:13:15.053Z,6.82
2023-02-19T04:15:45.129Z,6.80
2023-02-19T04:18:15.912Z,6.80
2023-02-19T04:20:46.381Z,6.81
2023-02-19T04:23:14.624Z,6.81
2023-02-19T04:25:44.023Z,6.81
2023-02-19T04:28:13.333Z,6.78
2023-02-19T04:30:40.040Z,6.78
2023-02-19T04:33:06.932Z,6.76
2023-02-19T04:35:33.673Z,6.74
2023-02-19T04:38:01.597Z,6.73
2023-02-19T04:40:28.160Z,6.74
2023-02-19T04:42:54.665Z,6.69
2023-02-19T04:45:21.472Z,6.73
2023-02-19T04:47:47.983Z,6.70
2023-02-19T04:50:14.862Z,6.70
2023-02-19T04:52:41.406Z,6.68
2023-02-19T04:55:09.881Z,6.69
2023-02-19T04:57:36.614Z,6.66
2023-02-19T05:00:03.612Z,6.69
2023-02-19T05:02:30.136Z,6.68
2023-02-19T05:04:56.649Z,6.68
2023-02-19T05:07:23.206Z,6.69
2023-02-19T05:09:49.744Z,6.65
2023-02-19T05:12:17.781Z,6.66
2023-02-19T05:14:44.405Z,6.66
2023-02-19T05:17:10.997Z,6.70
2023-02-19T05:19:37.748Z,6.72
2023-02-19T05:22:04.480Z,6.72
2023-02-19T05:24:31.042Z,6.70
2023-02-19T05:26:57.639Z,6.70
2023-02-19T05:29:25.585Z,6.74
2023-02-19T05:31:52.225Z,6.72
2023-02-19T05:34:18.835Z,6.69
2023-02-19T05:36:45.664Z,6.72
2023-02-19T05:39:12.396Z,6.75
2023-02-19T05:41:39.252Z,6.76
2023-02-19T05:44:05.802Z,6.75
2023-02-19T05:46:33.874Z,6.75
2023-02-19T05:49:00.539Z,6.70
2023-02-19T05:51:27.470Z,6.67
2023-02-19T05:53:56.848Z,6.65
2023-02-19T05:56:34.189Z,6.63
2023-02-19T05:59:02.463Z,6.63
2023-02-19T06:01:30.073Z,6.65
2023-02-19T06:03:58.142Z,6.64
2023-02-19T06:06:25.795Z,6.63
2023-02-19T06:08:52.688Z,6.63
2023-02-19T06:11:19.663Z,6.64
2023-02-19T06:13:46.584Z,6.64
2023-02-19T06:16:13.332Z,6.62
2023-02-19T06:18:40.188Z,6.66
2023-02-19T06:21:10.512Z,6.67
2023-02-19T06:23:37.412Z,6.65
2023-02-19T06:26:08.747Z,6.63
2023-02-19T06:28:36.041Z,6.58
2023-02-19T06:31:03.180Z,6.57
2023-02-19T06:33:30.225Z,6.53
2023-02-19T06:35:58.800Z,6.49
2023-02-19T06:38:27.465Z,6.49
2023-02-19T06:40:54.021Z,6.48
2023-02-19T06:43:20.819Z,6.50
2023-02-19T06:45:47.441Z,6.49
2023-02-19T06:48:14.010Z,6.49
2023-02-19T06:50:40.770Z,6.48
2023-02-19T06:53:07.413Z,6.51
2023-02-19T06:55:35.498Z,6.52
2023-02-19T06:58:02.080Z,6.57
2023-02-19T07:00:28.638Z,6.59
2023-02-19T07:02:55.194Z,6.59
2023-02-19T07:05:21.805Z,6.54
2023-02-19T07:07:48.324Z,6.50
2023-02-19T07:10:15.045Z,6.50
2023-02-19T07:12:43.125Z,6.51
2023-02-19T07:15:09.768Z,6.53
2023-02-19T07:17:36.339Z,6.54
2023-02-19T07:20:03.012Z,6.52
2023-02-19T07:22:29.504Z,6.49
2023-02-19T07:24:56.028Z,6.48
2023-02-19T07:27:22.758Z,6.47
2023-02-19T07:29:50.653Z,6.46
2023-02-19T07:32:17.433Z,6.46
2023-02-19T07:34:44.157Z,6.46
2023-02-19T07:37:10.674Z,6.48
2023-02-19T07:39:37.529Z,6.51
2023-02-19T07:42:04.438Z,6.54
2023-02-19T07:44:30.928Z,6.56
2023-02-19T07:46:58.840Z,6.62
2023-02-19T07:49:25.535Z,6.65
2023-02-19T07:51:52.145Z,6.68
2023-02-19T07:54:18.686Z,6.69
2023-02-19T07:56:45.271Z,6.70
2023-02-19T07:59:11.953Z,6.74
2023-02-19T08:01:38.596Z,6.76
2023-02-19T08:04:06.629Z,6.76
2023-02-19T08:06:33.203Z,6.75
2023-02-19T08:08:59.941Z,6.74
2023-02-19T08:11:26.618Z,6.70
2023-02-19T08:13:53.397Z,6.72
2023-02-19T08:16:33.239Z,6.75
2023-02-19T08:19:08.746Z,6.76
2023-02-19T08:21:35.389Z,6.73
2023-02-19T08:24:02.105Z,6.74
2023-02-19T08:26:28.824Z,6.70
2023-02-19T08:28:55.405Z,6.70
2023-02-19T08:31:22.184Z,6.72
2023-02-19T08:33:48.814Z,6.72
2023-02-19T08:36:16.831Z,6.76
2023-02-19T08:38:43.512Z,6.79
2023-02-19T08:41:12.567Z,6.86
2023-02-19T08:46:26.105Z,6.83
2023-02-19T08:48:52.638Z,6.89
2023-02-19T08:51:20.524Z,6.97
2023-02-19T08:53:47.118Z,6.98
2023-02-19T08:56:15.576Z,7.01
2023-02-19T08:58:42.562Z,7.03
2023-02-19T09:01:09.981Z,7.00
2023-02-19T09:03:36.849Z,7.01
2023-02-19T09:06:03.824Z,7.01
2023-02-19T09:08:31.941Z,6.97
2023-02-19T09:10:59.357Z,6.98
2023-02-19T09:13:26.046Z,6.96
2023-02-19T09:15:52.647Z,6.90
2023-02-19T09:18:19.351Z,6.91
2023-02-19T09:20:45.928Z,6.92
2023-02-19T09:23:12.441Z,6.90
2023-02-19T09:25:40.442Z,6.96
2023-02-19T09:28:07.034Z,6.92
2023-02-19T09:30:33.707Z,6.89
2023-02-19T09:33:00.430Z,6.88
2023-02-19T09:35:27.010Z,6.87
2023-02-19T09:37:53.525Z,6.86
2023-02-19T09:40:20.426Z,6.91
2023-02-19T09:42:50.776Z,6.91
2023-02-19T09:45:22.696Z,6.93
2023-02-19T09:47:50.613Z,6.99
2023-02-19T09:50:21.345Z,7.01
2023-02-19T09:52:52.753Z,7.01
2023-02-19T09:55:30.760Z,7.04
2023-02-19T09:58:00.148Z,7.04
2023-02-19T10:00:28.948Z,7.12
2023-02-19T10:03:03.879Z,7.11
2023-02-19T10:05:31.381Z,7.16
2023-02-19T10:07:58.530Z,7.14
2023-02-19T10:10:30.162Z,7.14
2023-02-19T10:13:10.002Z,7.13
2023-02-19T10:15:42.397Z,7.10
2023-02-19T10:18:11.181Z,7.14
2023-02-19T10:20:38.169Z,7.23
2023-02-19T10:23:07.015Z,7.31
2023-02-19T10:25:35.272Z,7.39
2023-02-19T10:28:04.362Z,7.50
2023-02-19T10:30:33.970Z,7.60
2023-02-19T10:33:04.252Z,7.67
2023-02-19T10:35:34.789Z,7.63
2023-02-19T10:38:02.036Z,7.64
2023-02-19T10:40:29.219Z,7.81
2023-02-19T10:42:57.752Z,7.83
2023-02-19T10:45:33.962Z,7.81
2023-02-19T10:48:00.695Z,7.81
2023-02-19T10:50:31.380Z,7.96
2023-02-19T10:52:59.997Z,8.06
2023-02-19T10:55:30.356Z,7.97
2023-02-19T10:57:57.143Z,7.89
2023-02-19T11:00:26.769Z,7.97
2023-02-19T11:03:18.237Z,7.97
2023-02-19T11:05:54.294Z,8.11
2023-02-19T11:08:22.717Z,8.21
2023-02-19T11:10:50.051Z,8.04
2023-02-19T11:13:26.834Z,8.02
2023-02-19T11:15:55.741Z,7.78
2023-02-19T11:18:32.872Z,7.61
2023-02-19T11:21:02.332Z,7.16
2023-02-19T11:23:31.505Z,6.83
2023-02-19T11:26:01.379Z,6.66
2023-02-19T11:28:32.293Z,6.55
2023-02-19T11:31:23.464Z,6.63
2023-02-19T11:33:55.375Z,6.73
2023-02-19T11:36:30.867Z,6.84
2023-02-19T11:38:59.438Z,6.91
2023-02-19T11:41:45.186Z,6.95
2023-02-19T11:44:24.920Z,7.07
2023-02-19T11:47:06.057Z,7.15
2023-02-19T11:49:45.096Z,7.26
2023-02-19T11:52:23.473Z,7.29
2023-02-19T11:54:54.194Z,7.30
2023-02-19T11:57:41.786Z,7.12
2023-02-19T12:00:22.409Z,7.03
2023-02-19T12:03:10.577Z,7.02
2023-02-19T12:05:49.758Z,7.00
2023-02-19T12:08:38.249Z,6.78
2023-02-19T12:11:32.563Z,6.82
2023-02-19T12:14:25.531Z,6.87
2023-02-19T12:16:59.679Z,6.97
2023-02-19T12:19:53.862Z,6.83
2023-02-19T12:22:30.089Z,6.80
2023-02-19T12:25:34.551Z,6.78
2023-02-19T12:28:38.028Z,6.77
2023-02-19T12:31:24.152Z,6.73
2023-02-19T12:34:17.703Z,6.60
2023-02-19T12:36:57.366Z,6.74
2023-02-19T12:39:31.896Z,6.81
2023-02-19T12:42:09.950Z,6.92
2023-02-19T12:44:42.157Z,6.89
2023-02-19T12:47:16.342Z,6.88
2023-02-19T12:49:48.567Z,7.04
2023-02-19T12:52:20.493Z,7.12
2023-02-19T12:54:50.726Z,7.20
2023-02-19T12:57:22.199Z,7.08
2023-02-19T12:59:53.607Z,7.24
2023-02-19T13:02:26.652Z,7.26
2023-02-19T13:04:59.341Z,7.24
2023-02-19T13:07:33.426Z,7.28
2023-02-19T13:10:08.916Z,7.37
2023-02-19T13:12:39.470Z,7.38
2023-02-19T13:15:15.526Z,7.34
2023-02-19T13:17:45.896Z,7.29
2023-02-19T13:20:18.335Z,7.24
2023-02-19T13:22:51.743Z,6.96
2023-02-19T13:25:19.698Z,6.85
2023-02-19T13:28:08.022Z,6.81
2023-02-19T13:30:56.745Z,6.80
2023-02-19T13:33:37.210Z,6.59
2023-02-19T13:36:10.226Z,6.76
2023-02-19T13:38:45.041Z,6.78
2023-02-19T13:41:20.467Z,6.81
2023-02-19T13:43:55.493Z,6.88
2023-02-19T13:46:22.485Z,6.88
2023-02-19T13:49:09.042Z,6.92
2023-02-19T13:51:47.612Z,6.93
2023-02-19T13:54:21.911Z,6.91
2023-02-19T13:56:49.394Z,6.86
2023-02-19T13:59:35.286Z,6.84
2023-02-19T14:02:25.427Z,6.85
2023-02-19T14:04:54.682Z,6.99
2023-02-19T14:07:34.177Z,7.08
2023-02-19T14:10:03.163Z,7.11
2023-02-19T14:12:34.348Z,7.16
2023-02-19T14:15:34.630Z,7.23
2023-02-19T14:18:01.416Z,7.15
2023-02-19T14:20:42.105Z,6.96
2023-02-19T14:23:17.923Z,6.88
2023-02-19T14:25:54.761Z,6.73
2023-02-19T14:28:28.740Z,6.58
2023-02-19T14:30:57.556Z,6.58
2023-02-19T14:33:26.724Z,6.60
2023-02-19T14:35:57.658Z,6.72
2023-02-19T14:38:26.694Z,6.80
2023-02-19T14:40:55.849Z,6.79
2023-02-19T14:43:25.546Z,6.87
2023-02-19T14:45:55.300Z,6.80
2023-02-19T14:48:26.053Z,6.78
2023-02-19T14:50:56.995Z,6.72
2023-02-19T14:53:25.178Z,6.72
2023-02-19T14:55:54.429Z,6.61
2023-02-19T14:58:25.395Z,6.70
2023-02-19T15:00:51.967Z,6.60
2023-02-19T15:03:31.199Z,6.56
2023-02-19T15:06:02.292Z,6.50
2023-02-19T15:08:36.016Z,6.51
2023-02-19T15:11:09.716Z,6.34
2023-02-19T15:13:37.230Z,6.35
2023-02-19T15:16:04.625Z,6.41
2023-02-19T15:18:31.621Z,6.41
2023-02-19T15:21:00.803Z,6.36
2023-02-19T15:23:29.024Z,6.35
2023-02-19T15:25:55.864Z,6.38
2023-02-19T15:28:31.597Z,6.24
2023-02-19T15:31:06.985Z,6.25
2023-02-19T15:33:34.102Z,6.22
2023-02-19T15:36:03.230Z,6.17
2023-02-19T15:38:30.045Z,6.12
2023-02-19T15:40:57.050Z,6.07
2023-02-19T15:43:27.337Z,6.02
2023-02-19T15:45:58.670Z,6.05
2023-02-19T15:48:30.878Z,6.01
2023-02-19T15:51:01.969Z,5.97
2023-02-19T15:53:34.414Z,5.97
2023-02-19T15:56:06.829Z,5.98
2023-02-19T15:58:37.645Z,5.96
2023-02-19T16:01:13.670Z,5.95
2023-02-19T16:03:40.831Z,5.94
2023-02-19T16:06:10.694Z,5.91
2023-02-19T16:08:38.948Z,5.86
2023-02-19T16:11:07.145Z,5.81
2023-02-19T16:13:34.751Z,5.75
2023-02-19T16:16:15.228Z,5.73
2023-02-19T16:18:45.335Z,5.65
2023-02-19T16:21:15.578Z,5.64
2023-02-19T16:23:43.681Z,5.65
2023-02-19T16:26:10.739Z,5.58
2023-02-19T16:28:40.042Z,5.56
2023-02-19T16:31:10.526Z,5.54
2023-02-19T16:33:39.857Z,5.54
2023-02-19T16:36:20.765Z,5.51
2023-02-19T16:39:16.374Z,5.47
2023-02-19T16:42:16.704Z,5.45
2023-02-19T16:44:47.445Z,5.47
2023-02-19T16:47:24.059Z,5.47
2023-02-19T16:49:52.355Z,5.44
2023-02-19T16:52:18.943Z,5.44
2023-02-19T16:54:48.037Z,5.38
2023-02-19T16:57:14.927Z,5.38
2023-02-19T16:59:41.519Z,5.43
2023-02-19T17:02:14.560Z,5.42
2023-02-19T17:04:42.748Z,5.37
2023-02-19T17:07:12.856Z,5.37
2023-02-19T17:09:39.423Z,5.35
2023-02-19T17:12:12.808Z,5.32
2023-02-19T17:14:39.431Z,5.30
2023-02-19T17:17:06.107Z,5.30
2023-02-19T17:19:32.744Z,5.27
2023-02-19T17:22:00.882Z,5.25
2023-02-19T17:24:27.418Z,5.24
2023-02-19T17:26:54.039Z,5.23
2023-02-19T17:29:20.626Z,5.17
2023-02-19T17:31:47.294Z,5.14
2023-02-19T17:34:14.024Z,5.09
2023-02-19T17:36:41.051Z,5.03
2023-02-19T17:39:13.854Z,5.01
2023-02-19T17:41:40.914Z,4.98
2023-02-19T17:44:07.485Z,4.96
2023-02-19T17:46:34.021Z,4.94
2023-02-19T17:49:00.533Z,4.94
2023-02-19T17:51:28.234Z,4.95
2023-02-19T17:53:54.874Z,4.95
2023-02-19T17:56:25.147Z,4.95
2023-02-19T17:58:52.098Z,4.95
2023-02-19T18:01:18.764Z,4.95
2023-02-19T18:03:45.452Z,4.96
2023-02-19T18:06:12.202Z,4.97
2023-02-19T18:08:38.911Z,4.95
2023-02-19T18:11:06.884Z,4.94
2023-02-19T18:13:34.955Z,4.92
2023-02-19T18:16:01.569Z,4.93
2023-02-19T18:18:28.183Z,4.93
2023-02-19T18:20:54.740Z,4.91
2023-02-19T18:23:21.605Z,4.89
2023-02-19T18:25:48.390Z,4.86
2023-02-19T18:28:15.341Z,4.87
2023-02-19T18:30:43.495Z,4.82
2023-02-19T18:33:10.201Z,4.81
2023-02-19T18:35:37.022Z,4.80
2023-02-19T18:38:03.802Z,4.83
2023-02-19T18:40:30.422Z,4.79
2023-02-19T18:42:57.119Z,4.78
2023-02-19T18:45:23.683Z,4.78
2023-02-19T18:47:51.709Z,4.75
2023-02-19T18:50:19.743Z,4.77
2023-02-19T18:52:46.402Z,4.75
2023-02-19T18:55:13.317Z,4.71
2023-02-19T18:57:40.042Z,4.72
2023-02-19T19:00:07.686Z,4.73
2023-02-19T19:02:47.386Z,4.73
2023-02-19T19:05:19.196Z,4.71
2023-02-19T19:07:45.978Z,4.71
2023-02-19T19:10:12.571Z,4.70
2023-02-19T19:12:39.157Z,4.69
2023-02-19T19:15:06.097Z,4.70
2023-02-19T19:17:32.661Z,4.68
2023-02-19T19:19:59.298Z,4.70
2023-02-19T19:22:27.287Z,4.69
2023-02-19T19:24:53.914Z,4.70
2023-02-19T19:27:20.680Z,4.73
2023-02-19T19:29:47.638Z,4.82
2023-02-19T19:32:14.494Z,4.83
2023-02-19T19:34:41.432Z,4.87
2023-02-19T19:37:08.005Z,4.89
2023-02-19T19:39:37.282Z,4.87
2023-02-19T19:42:04.397Z,4.88
2023-02-19T19:44:30.962Z,4.92
2023-02-19T19:46:57.601Z,4.96
2023-02-19T19:49:24.264Z,4.97
2023-02-19T19:51:50.860Z,5.00
2023-02-19T19:54:17.450Z,5.04
2023-02-19T19:56:47.257Z,5.11
2023-02-19T19:59:16.003Z,5.12
2023-02-19T20:01:47.962Z,5.14
2023-02-19T20:04:14.697Z,5.17
2023-02-19T20:06:41.487Z,5.20
2023-02-19T20:09:08.363Z,5.18
2023-02-19T20:11:34.932Z,5.21
2023-02-19T20:14:02.990Z,5.23
2023-02-19T20:16:29.562Z,5.27
2023-02-19T20:18:56.092Z,5.26
2023-02-19T20:21:22.830Z,5.27
2023-02-19T20:23:49.359Z,5.29
2023-02-19T20:26:22.303Z,5.31
2023-02-19T20:28:48.852Z,5.33
2023-02-19T20:31:17.314Z,5.33
2023-02-19T20:33:43.905Z,5.35
2023-02-19T20:36:10.886Z,5.37
2023-02-19T20:38:37.502Z,5.39
2023-02-19T20:41:04.358Z,5.43
2023-02-19T20:43:31.037Z,5.40
2023-02-19T20:45:57.751Z,5.39
2023-02-19T20:48:25.725Z,5.39
2023-02-19T20:50:52.318Z,5.44
2023-02-19T20:53:18.897Z,5.43
2023-02-19T20:55:45.450Z,5.43
2023-02-19T20:58:11.981Z,5.43
2023-02-19T21:00:38.534Z,5.45
2023-02-19T21:03:05.129Z,5.43
2023-02-19T21:05:33.069Z,5.39
2023-02-19T21:07:59.792Z,5.48
2023-02-19T21:10:26.316Z,5.47
2023-02-19T21:12:52.875Z,5.45
2023-02-19T21:15:19.443Z,5.45
2023-02-19T21:17:45.992Z,5.36
2023-02-19T21:20:34.727Z,5.29
2023-02-19T21:23:01.398Z,5.28
2023-02-19T21:25:27.978Z,5.24
2023-02-19T21:27:54.707Z,5.11
2023-02-19T21:30:21.256Z,5.09
2023-02-19T21:32:47.838Z,5.03
2023-02-19T21:35:14.583Z,4.96
2023-02-19T21:37:43.346Z,4.89
2023-02-19T21:40:11.453Z,4.91
2023-02-19T21:42:38.112Z,4.88
2023-02-19T21:45:05.464Z,4.87
2023-02-19T21:47:32.091Z,4.81
2023-02-19T21:49:58.601Z,4.73
2023-02-19T21:52:25.313Z,4.71
2023-02-19T21:54:53.442Z,4.69
2023-02-19T21:57:20.162Z,4.68
2023-02-19T21:59:46.793Z,4.66
2023-02-19T22:02:13.334Z,4.71
2023-02-19T22:04:40.839Z,4.69
2023-02-19T22:07:07.569Z,4.70
2023-02-19T22:09:34.209Z,4.63
2023-02-19T22:12:02.154Z,4.60
2023-02-19T22:14:28.688Z,4.55
2023-02-19T22:16:55.309Z,4.50
2023-02-19T22:19:21.989Z,4.46
2023-02-19T22:21:48.663Z,4.40
2023-02-19T22:24:18.102Z,4.40
2023-02-19T22:26:45.056Z,4.41
2023-02-19T22:29:15.020Z,4.45
2023-02-19T22:31:42.232Z,4.47
2023-02-19T22:34:09.625Z,4.46
2023-02-19T22:36:36.529Z,4.48
2023-02-19T22:39:04.919Z,4.46
2023-02-19T22:41:31.688Z,4.48
2023-02-19T22:43:58.958Z,4.51
2023-02-19T22:46:29.128Z,4.49
2023-02-19T22:48:56.232Z,4.48
2023-02-19T22:51:24.413Z,4.46
2023-02-19T22:53:52.649Z,4.48
2023-02-19T22:56:20.977Z,4.49
2023-02-19T22:58:47.649Z,4.51
2023-02-19T23:01:15.710Z,4.51
2023-02-19T23:03:48.078Z,4.53
2023-02-19T23:06:15.097Z,4.58
2023-02-19T23:08:41.877Z,4.58
2023-02-19T23:11:09.037Z,4.58
2023-02-19T23:13:35.773Z,4.63
2023-02-19T23:16:02.381Z,4.66
2023-02-19T23:18:28.890Z,4.66
2023-02-19T23:20:56.924Z,4.67
2023-02-19T23:23:23.531Z,4.68
2023-02-19T23:25:50.089Z,4.69
2023-02-19T23:28:16.755Z,4.67
2023-02-19T23:30:43.362Z,4.68
2023-02-19T23:33:10.008Z,4.64
2023-02-19T23:35:36.585Z,4.62
2023-02-19T23:38:04.501Z,4.58
2023-02-19T23:40:31.219Z,4.55
2023-02-19T23:42:57.725Z,4.52
2023-02-19T23:45:24.286Z,4.52
2023-02-19T23:47:50.831Z,4.48
2023-02-19T23:50:17.693Z,4.48
2023-02-19T23:52:44.450Z,4.42
2023-02-19T23:55:12.425Z,4.39
2023-02-19T23:57:39.272Z,4.38
